sensor_id;sensor_type;location;lat;lon;timestamp;temperature;humidity
25250;DHT22;13201;51.148;13.738;2023-03-01T00:01:06;-1.20;99.90
25250;DHT22;13201;51.148;13.738;2023-03-01T00:03:33;-1.30;99.90
25250;DHT22;13201;51.148;13.738;2023-03-01T00:05:59;-1.30;99.90
25250;DHT22;13201;51.148;13.738;2023-03-01T00:08:26;-1.30;99.90
25250;DHT22;13201;51.148;13.738;2023-03-01T00:13:32;-1.40;99.90
25250;DHT22;13201;51.148;13.738;2023-03-01T00:15:57;-1.40;99.90
25250;DHT22;13201;51.148;13.738;2023-03-01T00:18:23;-1.40;99.90
25250;DHT22;13201;51.148;13.738;2023-03-01T00:20:54;-1.60;99.90
25250;DHT22;13201;51.148;13.738;2023-03-01T00:23:21;-1.60;99.90
25250;DHT22;13201;51.148;13.738;2023-03-01T00:25:47;-1.60;99.90
25250;DHT22;13201;51.148;13.738;2023-03-01T00:28:13;-1.50;99.90
25250;DHT22;13201;51.148;13.738;2023-03-01T00:30:38;-1.50;99.90
25250;DHT22;13201;51.148;13.738;2023-03-01T00:33:04;-1.50;99.90
25250;DHT22;13201;51.148;13.738;2023-03-01T00:35:32;-1.50;99.90
25250;DHT22;13201;51.148;13.738;2023-03-01T00:37:58;-1.50;99.90
25250;DHT22;13201;51.148;13.738;2023-03-01T00:40:25;-1.60;99.90
25250;DHT22;13201;51.148;13.738;2023-03-01T00:42:51;-1.60;99.90
25250;DHT22;13201;51.148;13.738;2023-03-01T00:45:17;-1.90;99.90
25250;DHT22;13201;51.148;13.738;2023-03-01T00:47:43;-2.30;99.90
25250;DHT22;13201;51.148;13.738;2023-03-01T00:50:09;-2.10;99.90
25250;DHT22;13201;51.148;13.738;2023-03-01T00:52:35;-2.00;99.90
25250;DHT22;13201;51.148;13.738;2023-03-01T00:55:01;-1.90;99.90
25250;DHT22;13201;51.148;13.738;2023-03-01T00:57:27;-1.90;99.90
25250;DHT22;13201;51.148;13.738;2023-03-01T00:59:53;-1.80;99.90
25250;DHT22;13201;51.148;13.738;2023-03-01T01:02:19;-1.90;99.90
25250;DHT22;13201;51.148;13.738;2023-03-01T01:04:46;-1.90;99.90
25250;DHT22;13201;51.148;13.738;2023-03-01T01:30:57;-3.30;99.90
25250;DHT22;13201;51.148;13.738;2023-03-01T01:33:22;-3.40;99.90
25250;DHT22;13201;51.148;13.738;2023-03-01T01:35:48;-3.40;99.90
25250;DHT22;13201;51.148;13.738;2023-03-01T01:38:14;-3.20;99.90
25250;DHT22;13201;51.148;13.738;2023-03-01T01:40:44;-3.30;99.90
25250;DHT22;13201;51.148;13.738;2023-03-01T01:43:32;-3.00;99.90
25250;DHT22;13201;51.148;13.738;2023-03-01T01:46:12;-2.90;99.90
25250;DHT22;13201;51.148;13.738;2023-03-01T01:48:44;-3.10;99.90
25250;DHT22;13201;51.148;13.738;2023-03-01T01:51:16;-2.80;99.90
25250;DHT22;13201;51.148;13.738;2023-03-01T01:53:48;-2.60;99.90
25250;DHT22;13201;51.148;13.738;2023-03-01T01:56:16;-2.60;99.90
25250;DHT22;13201;51.148;13.738;2023-03-01T01:58:43;-2.50;99.90
25250;DHT22;13201;51.148;13.738;2023-03-01T02:01:10;-2.40;99.90
25250;DHT22;13201;51.148;13.738;2023-03-01T02:03:38;-2.40;99.90
25250;DHT22;13201;51.148;13.738;2023-03-01T02:06:16;-2.50;99.90
25250;DHT22;13201;51.148;13.738;2023-03-01T02:08:44;-2.50;99.90
25250;DHT22;13201;51.148;13.738;2023-03-01T02:11:12;-2.50;99.90
25250;DHT22;13201;51.148;13.738;2023-03-01T02:13:40;-2.60;99.90
25250;DHT22;13201;51.148;13.738;2023-03-01T02:16:10;-2.50;99.90
25250;DHT22;13201;51.148;13.738;2023-03-01T02:18:38;-2.50;99.90
25250;DHT22;13201;51.148;13.738;2023-03-01T02:23:48;-2.40;99.90
25250;DHT22;13201;51.148;13.738;2023-03-01T02:26:42;-2.40;99.90
25250;DHT22;13201;51.148;13.738;2023-03-01T02:29:10;-2.40;99.90
25250;DHT22;13201;51.148;13.738;2023-03-01T02:31:36;-2.50;99.90
25250;DHT22;13201;51.148;13.738;2023-03-01T02:34:28;-2.50;99.90
25250;DHT22;13201;51.148;13.738;2023-03-01T02:37:01;-2.50;99.90
25250;DHT22;13201;51.148;13.738;2023-03-01T02:39:48;-2.50;99.90
25250;DHT22;13201;51.148;13.738;2023-03-01T02:42:20;-2.70;99.90
25250;DHT22;13201;51.148;13.738;2023-03-01T02:44:49;-2.60;99.90
25250;DHT22;13201;51.148;13.738;2023-03-01T02:47:15;-2.50;99.90
25250;DHT22;13201;51.148;13.738;2023-03-01T02:49:41;-2.50;99.90
25250;DHT22;13201;51.148;13.738;2023-03-01T02:55:13;-2.60;99.90
25250;DHT22;13201;51.148;13.738;2023-03-01T02:57:43;-2.60;99.90
25250;DHT22;13201;51.148;13.738;2023-03-01T03:00:19;-2.60;99.90
25250;DHT22;13201;51.148;13.738;2023-03-01T03:02:50;-2.70;99.90
25250;DHT22;13201;51.148;13.738;2023-03-01T03:05:23;-2.60;99.90
25250;DHT22;13201;51.148;13.738;2023-03-01T03:07:49;-2.50;99.90
25250;DHT22;13201;51.148;13.738;2023-03-01T03:10:23;-2.70;99.90
25250;DHT22;13201;51.148;13.738;2023-03-01T03:12:55;-2.60;99.90
25250;DHT22;13201;51.148;13.738;2023-03-01T03:15:22;-2.60;99.90
25250;DHT22;13201;51.148;13.738;2023-03-01T03:17:50;-2.60;99.90
25250;DHT22;13201;51.148;13.738;2023-03-01T03:20:17;-2.60;99.90
25250;DHT22;13201;51.148;13.738;2023-03-01T03:22:48;-2.60;99.90
25250;DHT22;13201;51.148;13.738;2023-03-01T03:25:14;-2.60;99.90
25250;DHT22;13201;51.148;13.738;2023-03-01T03:27:41;-2.80;99.90
25250;DHT22;13201;51.148;13.738;2023-03-01T03:30:10;-2.70;99.90
25250;DHT22;13201;51.148;13.738;2023-03-01T03:32:42;-2.80;99.90
25250;DHT22;13201;51.148;13.738;2023-03-01T03:35:19;-2.90;99.90
25250;DHT22;13201;51.148;13.738;2023-03-01T03:37:44;-3.00;99.90
25250;DHT22;13201;51.148;13.738;2023-03-01T03:40:40;-3.00;99.90
25250;DHT22;13201;51.148;13.738;2023-03-01T03:43:15;-3.00;99.90
25250;DHT22;13201;51.148;13.738;2023-03-01T03:45:43;-3.10;99.90
25250;DHT22;13201;51.148;13.738;2023-03-01T03:48:09;-3.00;99.90
25250;DHT22;13201;51.148;13.738;2023-03-01T03:50:36;-3.10;99.90
25250;DHT22;13201;51.148;13.738;2023-03-01T03:53:04;-3.10;99.90
25250;DHT22;13201;51.148;13.738;2023-03-01T03:55:30;-3.10;99.90
25250;DHT22;13201;51.148;13.738;2023-03-01T03:58:01;-3.10;99.90
25250;DHT22;13201;51.148;13.738;2023-03-01T04:00:39;-3.10;99.90
25250;DHT22;13201;51.148;13.738;2023-03-01T04:03:05;-3.00;99.90
25250;DHT22;13201;51.148;13.738;2023-03-01T04:05:32;-3.10;99.90
25250;DHT22;13201;51.148;13.738;2023-03-01T04:07:58;-3.30;99.90
25250;DHT22;13201;51.148;13.738;2023-03-01T04:10:44;-3.20;99.90
25250;DHT22;13201;51.148;13.738;2023-03-01T04:13:15;-3.10;99.90
25250;DHT22;13201;51.148;13.738;2023-03-01T04:15:42;-3.10;99.90
25250;DHT22;13201;51.148;13.738;2023-03-01T04:18:15;-3.10;99.90
25250;DHT22;13201;51.148;13.738;2023-03-01T04:20:41;-3.20;99.90
25250;DHT22;13201;51.148;13.738;2023-03-01T04:23:14;-3.20;99.90
25250;DHT22;13201;51.148;13.738;2023-03-01T04:25:51;-3.20;99.90
25250;DHT22;13201;51.148;13.738;2023-03-01T04:28:33;-3.20;99.90
25250;DHT22;13201;51.148;13.738;2023-03-01T04:31:03;-3.30;99.90
25250;DHT22;13201;51.148;13.738;2023-03-01T04:33:41;-3.20;99.90
25250;DHT22;13201;51.148;13.738;2023-03-01T04:36:09;-3.10;99.90
25250;DHT22;13201;51.148;13.738;2023-03-01T04:38:35;-3.20;99.90
25250;DHT22;13201;51.148;13.738;2023-03-01T04:41:04;-3.30;99.90
25250;DHT22;13201;51.148;13.738;2023-03-01T04:43:29;-3.20;99.90
25250;DHT22;13201;51.148;13.738;2023-03-01T04:46:03;-3.40;99.90
25250;DHT22;13201;51.148;13.738;2023-03-01T04:48:30;-3.40;99.90
25250;DHT22;13201;51.148;13.738;2023-03-01T04:50:58;-3.40;99.90
25250;DHT22;13201;51.148;13.738;2023-03-01T04:53:24;-3.40;99.90
25250;DHT22;13201;51.148;13.738;2023-03-01T04:55:50;-3.40;99.90
25250;DHT22;13201;51.148;13.738;2023-03-01T04:58:16;-3.40;99.90
25250;DHT22;13201;51.148;13.738;2023-03-01T05:00:42;-3.30;99.90
25250;DHT22;13201;51.148;13.738;2023-03-01T05:03:08;-3.20;99.90
25250;DHT22;13201;51.148;13.738;2023-03-01T05:05:37;-3.30;99.90
25250;DHT22;13201;51.148;13.738;2023-03-01T05:08:06;-3.30;99.90
25250;DHT22;13201;51.148;13.738;2023-03-01T05:10:33;-3.30;99.90
25250;DHT22;13201;51.148;13.738;2023-03-01T05:13:01;-3.40;99.90
25250;DHT22;13201;51.148;13.738;2023-03-01T05:15:27;-3.40;99.90
25250;DHT22;13201;51.148;13.738;2023-03-01T05:17:54;-3.40;99.90
25250;DHT22;13201;51.148;13.738;2023-03-01T05:20:21;-3.40;99.90
25250;DHT22;13201;51.148;13.738;2023-03-01T05:22:49;-3.40;99.90
25250;DHT22;13201;51.148;13.738;2023-03-01T05:25:15;-3.60;99.90
25250;DHT22;13201;51.148;13.738;2023-03-01T05:27:40;-3.50;99.90
25250;DHT22;13201;51.148;13.738;2023-03-01T05:30:07;-3.50;99.90
25250;DHT22;13201;51.148;13.738;2023-03-01T05:32:43;-3.50;99.90
25250;DHT22;13201;51.148;13.738;2023-03-01T05:35:14;-3.50;99.90
25250;DHT22;13201;51.148;13.738;2023-03-01T05:37:44;-3.60;99.90
25250;DHT22;13201;51.148;13.738;2023-03-01T05:40:12;-3.70;99.90
25250;DHT22;13201;51.148;13.738;2023-03-01T05:42:49;-3.70;99.90
25250;DHT22;13201;51.148;13.738;2023-03-01T05:45:16;-3.60;99.90
25250;DHT22;13201;51.148;13.738;2023-03-01T05:47:44;-3.60;99.90
25250;DHT22;13201;51.148;13.738;2023-03-01T05:50:17;-3.60;99.90
25250;DHT22;13201;51.148;13.738;2023-03-01T05:52:47;-3.60;99.90
25250;DHT22;13201;51.148;13.738;2023-03-01T05:55:14;-3.50;99.90
25250;DHT22;13201;51.148;13.738;2023-03-01T05:57:40;-3.60;99.90
25250;DHT22;13201;51.148;13.738;2023-03-01T06:00:07;-3.60;99.90
25250;DHT22;13201;51.148;13.738;2023-03-01T06:02:33;-3.70;99.90
25250;DHT22;13201;51.148;13.738;2023-03-01T06:04:58;-3.60;99.90
25250;DHT22;13201;51.148;13.738;2023-03-01T06:07:24;-3.70;99.90
25250;DHT22;13201;51.148;13.738;2023-03-01T06:09:50;-3.60;99.90
25250;DHT22;13201;51.148;13.738;2023-03-01T06:12:15;-3.50;99.90
25250;DHT22;13201;51.148;13.738;2023-03-01T06:14:41;-3.60;99.90
25250;DHT22;13201;51.148;13.738;2023-03-01T06:17:07;-3.60;99.90
25250;DHT22;13201;51.148;13.738;2023-03-01T06:19:32;-3.50;99.90
25250;DHT22;13201;51.148;13.738;2023-03-01T06:21:58;-3.50;99.90
25250;DHT22;13201;51.148;13.738;2023-03-01T06:24:24;-3.60;99.90
25250;DHT22;13201;51.148;13.738;2023-03-01T06:26:49;-3.50;99.90
25250;DHT22;13201;51.148;13.738;2023-03-01T06:29:15;-3.60;99.90
25250;DHT22;13201;51.148;13.738;2023-03-01T06:31:41;-3.50;99.90
25250;DHT22;13201;51.148;13.738;2023-03-01T06:34:06;-3.60;99.90
25250;DHT22;13201;51.148;13.738;2023-03-01T06:36:32;-3.50;99.90
25250;DHT22;13201;51.148;13.738;2023-03-01T06:38:58;-3.50;99.90
25250;DHT22;13201;51.148;13.738;2023-03-01T06:41:23;-3.40;99.90
25250;DHT22;13201;51.148;13.738;2023-03-01T06:43:49;-3.40;99.90
25250;DHT22;13201;51.148;13.738;2023-03-01T06:46:15;-3.40;99.90
25250;DHT22;13201;51.148;13.738;2023-03-01T06:48:41;-3.30;99.90
25250;DHT22;13201;51.148;13.738;2023-03-01T06:51:07;-3.30;99.90
25250;DHT22;13201;51.148;13.738;2023-03-01T06:53:32;-3.30;99.90
25250;DHT22;13201;51.148;13.738;2023-03-01T06:55:58;-3.30;99.90
25250;DHT22;13201;51.148;13.738;2023-03-01T06:58:25;-3.10;99.90
25250;DHT22;13201;51.148;13.738;2023-03-01T07:00:51;-3.00;99.90
25250;DHT22;13201;51.148;13.738;2023-03-01T07:03:18;-3.10;99.90
25250;DHT22;13201;51.148;13.738;2023-03-01T07:05:44;-3.00;99.90
25250;DHT22;13201;51.148;13.738;2023-03-01T07:08:10;-2.90;99.90
25250;DHT22;13201;51.148;13.738;2023-03-01T07:10:36;-2.80;99.90
25250;DHT22;13201;51.148;13.738;2023-03-01T07:13:01;-2.80;99.90
25250;DHT22;13201;51.148;13.738;2023-03-01T07:15:27;-2.70;99.90
25250;DHT22;13201;51.148;13.738;2023-03-01T07:17:53;-2.70;99.90
25250;DHT22;13201;51.148;13.738;2023-03-01T07:20:20;-2.60;99.90
25250;DHT22;13201;51.148;13.738;2023-03-01T07:22:54;-2.50;99.90
25250;DHT22;13201;51.148;13.738;2023-03-01T07:25:20;-2.40;99.90
25250;DHT22;13201;51.148;13.738;2023-03-01T07:27:50;-2.30;99.90
25250;DHT22;13201;51.148;13.738;2023-03-01T07:30:16;-2.20;99.90
25250;DHT22;13201;51.148;13.738;2023-03-01T07:32:42;-2.20;99.90
25250;DHT22;13201;51.148;13.738;2023-03-01T07:35:08;-2.20;99.90
25250;DHT22;13201;51.148;13.738;2023-03-01T07:37:34;-2.10;99.90
25250;DHT22;13201;51.148;13.738;2023-03-01T07:39:59;-2.00;99.90
25250;DHT22;13201;51.148;13.738;2023-03-01T07:42:25;-2.00;99.90
25250;DHT22;13201;51.148;13.738;2023-03-01T07:44:51;-1.80;99.90
25250;DHT22;13201;51.148;13.738;2023-03-01T07:47:16;-1.80;99.90
25250;DHT22;13201;51.148;13.738;2023-03-01T07:49:42;-1.80;99.90
25250;DHT22;13201;51.148;13.738;2023-03-01T07:52:12;-1.60;99.90
25250;DHT22;13201;51.148;13.738;2023-03-01T07:54:38;-1.60;99.90
25250;DHT22;13201;51.148;13.738;2023-03-01T07:57:04;-1.70;99.90
25250;DHT22;13201;51.148;13.738;2023-03-01T07:59:30;-1.60;99.90
25250;DHT22;13201;51.148;13.738;2023-03-01T08:01:56;-1.60;99.90
25250;DHT22;13201;51.148;13.738;2023-03-01T08:04:22;-1.40;99.90
25250;DHT22;13201;51.148;13.738;2023-03-01T08:06:50;-1.30;99.90
25250;DHT22;13201;51.148;13.738;2023-03-01T08:09:16;-1.40;99.90
25250;DHT22;13201;51.148;13.738;2023-03-01T08:11:42;-1.30;99.90
25250;DHT22;13201;51.148;13.738;2023-03-01T08:14:08;-1.30;99.90
25250;DHT22;13201;51.148;13.738;2023-03-01T08:16:34;-1.20;99.90
25250;DHT22;13201;51.148;13.738;2023-03-01T08:19:08;-1.20;99.90
25250;DHT22;13201;51.148;13.738;2023-03-01T08:21:35;-1.00;99.90
25250;DHT22;13201;51.148;13.738;2023-03-01T08:24:05;-1.00;99.90
25250;DHT22;13201;51.148;13.738;2023-03-01T08:26:32;-0.90;99.90
25250;DHT22;13201;51.148;13.738;2023-03-01T08:28:58;-0.70;99.90
25250;DHT22;13201;51.148;13.738;2023-03-01T08:33:52;-0.60;99.90
25250;DHT22;13201;51.148;13.738;2023-03-01T08:36:23;-0.50;99.90
25250;DHT22;13201;51.148;13.738;2023-03-01T08:38:49;-0.40;99.90
25250;DHT22;13201;51.148;13.738;2023-03-01T08:41:15;-0.30;99.90
25250;DHT22;13201;51.148;13.738;2023-03-01T08:43:41;-0.30;99.90
25250;DHT22;13201;51.148;13.738;2023-03-01T08:46:07;-0.20;99.90
25250;DHT22;13201;51.148;13.738;2023-03-01T08:48:33;-0.20;99.90
25250;DHT22;13201;51.148;13.738;2023-03-01T08:51:10;-0.20;99.90
25250;DHT22;13201;51.148;13.738;2023-03-01T08:53:36;-0.20;99.90
25250;DHT22;13201;51.148;13.738;2023-03-01T08:56:02;0.00;99.90
25250;DHT22;13201;51.148;13.738;2023-03-01T08:58:29;0.20;99.90
25250;DHT22;13201;51.148;13.738;2023-03-01T09:00:54;0.40;99.90
25250;DHT22;13201;51.148;13.738;2023-03-01T09:03:22;0.50;99.90
25250;DHT22;13201;51.148;13.738;2023-03-01T09:05:48;0.70;99.90
25250;DHT22;13201;51.148;13.738;2023-03-01T09:08:16;0.70;99.90
25250;DHT22;13201;51.148;13.738;2023-03-01T09:10:42;0.70;99.90
25250;DHT22;13201;51.148;13.738;2023-03-01T09:13:07;0.80;99.90
25250;DHT22;13201;51.148;13.738;2023-03-01T09:15:33;1.00;99.90
25250;DHT22;13201;51.148;13.738;2023-03-01T09:17:59;1.00;99.90
25250;DHT22;13201;51.148;13.738;2023-03-01T09:20:25;1.10;99.90
25250;DHT22;13201;51.148;13.738;2023-03-01T09:22:50;1.10;99.90
25250;DHT22;13201;51.148;13.738;2023-03-01T09:25:16;1.20;99.90
25250;DHT22;13201;51.148;13.738;2023-03-01T09:27:42;1.30;99.90
25250;DHT22;13201;51.148;13.738;2023-03-01T09:30:08;1.40;99.90
25250;DHT22;13201;51.148;13.738;2023-03-01T09:32:34;1.50;99.90
25250;DHT22;13201;51.148;13.738;2023-03-01T09:35:00;1.60;99.90
25250;DHT22;13201;51.148;13.738;2023-03-01T09:37:35;1.70;99.90
25250;DHT22;13201;51.148;13.738;2023-03-01T09:40:02;1.70;99.90
25250;DHT22;13201;51.148;13.738;2023-03-01T09:42:35;1.80;99.90
25250;DHT22;13201;51.148;13.738;2023-03-01T09:45:03;1.90;99.90
25250;DHT22;13201;51.148;13.738;2023-03-01T09:47:34;1.90;99.90
25250;DHT22;13201;51.148;13.738;2023-03-01T09:50:03;2.10;99.90
25250;DHT22;13201;51.148;13.738;2023-03-01T09:55:04;2.40;99.90
25250;DHT22;13201;51.148;13.738;2023-03-01T09:57:55;2.50;99.90
25250;DHT22;13201;51.148;13.738;2023-03-01T10:06:15;2.60;99.90
25250;DHT22;13201;51.148;13.738;2023-03-01T10:08:54;2.70;99.90
25250;DHT22;13201;51.148;13.738;2023-03-01T10:11:26;2.80;99.90
25250;DHT22;13201;51.148;13.738;2023-03-01T10:19:45;3.30;99.90
25250;DHT22;13201;51.148;13.738;2023-03-01T10:24:41;3.50;99.90
25250;DHT22;13201;51.148;13.738;2023-03-01T10:32:24;3.60;99.90
25250;DHT22;13201;51.148;13.738;2023-03-01T10:34:51;3.70;99.90
25250;DHT22;13201;51.148;13.738;2023-03-01T10:37:18;3.80;99.90
25250;DHT22;13201;51.148;13.738;2023-03-01T10:40:07;3.80;99.90
25250;DHT22;13201;51.148;13.738;2023-03-01T10:42:47;4.00;99.90
25250;DHT22;13201;51.148;13.738;2023-03-01T10:48:24;4.40;99.90
25250;DHT22;13201;51.148;13.738;2023-03-01T10:53:41;4.30;99.90
25250;DHT22;13201;51.148;13.738;2023-03-01T10:56:12;4.50;99.90
25250;DHT22;13201;51.148;13.738;2023-03-01T11:01:35;4.80;99.90
25250;DHT22;13201;51.148;13.738;2023-03-01T11:06:33;5.10;99.90
25250;DHT22;13201;51.148;13.738;2023-03-01T11:11:43;5.40;99.90
25250;DHT22;13201;51.148;13.738;2023-03-01T11:14:16;5.30;99.90
25250;DHT22;13201;51.148;13.738;2023-03-01T11:16:44;5.40;99.90
25250;DHT22;13201;51.148;13.738;2023-03-01T11:21:59;5.70;99.90
25250;DHT22;13201;51.148;13.738;2023-03-01T11:26:56;6.00;99.90
25250;DHT22;13201;51.148;13.738;2023-03-01T11:29:33;6.00;99.90
25250;DHT22;13201;51.148;13.738;2023-03-01T11:32:04;6.10;99.90
25250;DHT22;13201;51.148;13.738;2023-03-01T11:34:43;6.00;99.90
25250;DHT22;13201;51.148;13.738;2023-03-01T11:45:48;6.20;99.90
25250;DHT22;13201;51.148;13.738;2023-03-01T11:48:37;6.20;99.90
25250;DHT22;13201;51.148;13.738;2023-03-01T11:51:11;6.40;99.90
25250;DHT22;13201;51.148;13.738;2023-03-01T11:56:40;6.60;99.90
25250;DHT22;13201;51.148;13.738;2023-03-01T12:07:31;6.80;99.90
25250;DHT22;13201;51.148;13.738;2023-03-01T12:12:36;6.80;99.90
25250;DHT22;13201;51.148;13.738;2023-03-01T12:18:35;6.80;99.90
25250;DHT22;13201;51.148;13.738;2023-03-01T12:21:37;7.00;99.90
25250;DHT22;13201;51.148;13.738;2023-03-01T12:30:21;7.00;99.90
25250;DHT22;13201;51.148;13.738;2023-03-01T12:32:54;6.90;99.90
25250;DHT22;13201;51.148;13.738;2023-03-01T12:38:22;6.70;99.90
25250;DHT22;13201;51.148;13.738;2023-03-01T12:46:28;7.20;99.70
25250;DHT22;13201;51.148;13.738;2023-03-01T12:49:14;7.40;99.90
25250;DHT22;13201;51.148;13.738;2023-03-01T12:51:43;7.60;99.90
25250;DHT22;13201;51.148;13.738;2023-03-01T12:54:27;7.70;99.90
25250;DHT22;13201;51.148;13.738;2023-03-01T12:56:54;7.30;99.60
25250;DHT22;13201;51.148;13.738;2023-03-01T13:02:23;7.50;99.50
25250;DHT22;13201;51.148;13.738;2023-03-01T13:04:54;7.60;99.30
25250;DHT22;13201;51.148;13.738;2023-03-01T13:18:42;8.10;98.90
25250;DHT22;13201;51.148;13.738;2023-03-01T13:20:48;8.10;99.00
25250;DHT22;13201;51.148;13.738;2023-03-01T13:28:55;8.30;98.40
25250;DHT22;13201;51.148;13.738;2023-03-01T13:34:38;8.50;97.80
25250;DHT22;13201;51.148;13.738;2023-03-01T13:36:46;8.60;98.30
25250;DHT22;13201;51.148;13.738;2023-03-01T13:39:39;8.80;97.70
25250;DHT22;13201;51.148;13.738;2023-03-01T13:42:33;8.60;98.10
25250;DHT22;13201;51.148;13.738;2023-03-01T13:45:00;8.80;97.80
25250;DHT22;13201;51.148;13.738;2023-03-01T13:47:27;8.70;97.70
25250;DHT22;13201;51.148;13.738;2023-03-01T13:49:59;8.60;97.90
25250;DHT22;13201;51.148;13.738;2023-03-01T13:52:45;8.20;97.20
25250;DHT22;13201;51.148;13.738;2023-03-01T13:57:47;8.30;97.60
25250;DHT22;13201;51.148;13.738;2023-03-01T14:00:33;8.50;97.60
25250;DHT22;13201;51.148;13.738;2023-03-01T14:03:19;8.70;98.10
25250;DHT22;13201;51.148;13.738;2023-03-01T14:06:06;8.80;97.10
25250;DHT22;13201;51.148;13.738;2023-03-01T14:08:33;8.90;97.50
25250;DHT22;13201;51.148;13.738;2023-03-01T14:21:25;9.20;97.20
25250;DHT22;13201;51.148;13.738;2023-03-01T14:23:52;9.20;97.20
25250;DHT22;13201;51.148;13.738;2023-03-01T14:26:24;9.20;97.10
25250;DHT22;13201;51.148;13.738;2023-03-01T14:28:50;9.30;97.10
25250;DHT22;13201;51.148;13.738;2023-03-01T14:33:58;9.80;97.40
25250;DHT22;13201;51.148;13.738;2023-03-01T14:36:28;10.00;97.30
25250;DHT22;13201;51.148;13.738;2023-03-01T14:38:54;10.20;97.20
25250;DHT22;13201;51.148;13.738;2023-03-01T14:41:21;10.00;97.10
25250;DHT22;13201;51.148;13.738;2023-03-01T14:43:51;10.10;97.30
25250;DHT22;13201;51.148;13.738;2023-03-01T14:49:02;10.40;97.00
25250;DHT22;13201;51.148;13.738;2023-03-01T14:51:28;10.60;96.20
25250;DHT22;13201;51.148;13.738;2023-03-01T14:53:54;10.60;96.30
25250;DHT22;13201;51.148;13.738;2023-03-01T14:56:20;10.60;96.10
25250;DHT22;13201;51.148;13.738;2023-03-01T14:58:50;10.90;96.00
25250;DHT22;13201;51.148;13.738;2023-03-01T15:01:17;10.80;95.70
25250;DHT22;13201;51.148;13.738;2023-03-01T15:03:44;11.20;95.60
25250;DHT22;13201;51.148;13.738;2023-03-01T15:06:15;11.30;95.20
25250;DHT22;13201;51.148;13.738;2023-03-01T15:08:46;11.20;95.10
25250;DHT22;13201;51.148;13.738;2023-03-01T15:11:30;11.10;95.20
25250;DHT22;13201;51.148;13.738;2023-03-01T15:13:56;11.40;94.70
25250;DHT22;13201;51.148;13.738;2023-03-01T15:16:30;11.30;94.70
25250;DHT22;13201;51.148;13.738;2023-03-01T15:19:01;11.10;94.60
25250;DHT22;13201;51.148;13.738;2023-03-01T15:21:31;11.10;94.80
25250;DHT22;13201;51.148;13.738;2023-03-01T15:24:05;11.00;94.70
25250;DHT22;13201;51.148;13.738;2023-03-01T15:26:36;11.30;94.30
25250;DHT22;13201;51.148;13.738;2023-03-01T15:29:02;11.50;94.40
25250;DHT22;13201;51.148;13.738;2023-03-01T15:31:32;11.60;94.20
25250;DHT22;13201;51.148;13.738;2023-03-01T15:39:04;11.10;93.90
25250;DHT22;13201;51.148;13.738;2023-03-01T15:42:00;11.70;94.00
25250;DHT22;13201;51.148;13.738;2023-03-01T15:44:27;11.70;93.90
25250;DHT22;13201;51.148;13.738;2023-03-01T15:46:53;11.60;93.90
25250;DHT22;13201;51.148;13.738;2023-03-01T15:49:38;11.60;93.60
25250;DHT22;13201;51.148;13.738;2023-03-01T15:52:09;11.40;93.70
25250;DHT22;13201;51.148;13.738;2023-03-01T15:54:39;11.40;94.00
25250;DHT22;13201;51.148;13.738;2023-03-01T15:57:12;11.40;93.30
25250;DHT22;13201;51.148;13.738;2023-03-01T15:59:38;11.10;93.40
25250;DHT22;13201;51.148;13.738;2023-03-01T16:02:11;11.30;93.80
25250;DHT22;13201;51.148;13.738;2023-03-01T16:04:40;11.00;93.40
25250;DHT22;13201;51.148;13.738;2023-03-01T16:07:06;11.00;93.60
25250;DHT22;13201;51.148;13.738;2023-03-01T16:09:32;11.40;94.00
25250;DHT22;13201;51.148;13.738;2023-03-01T16:11:58;11.80;93.70
25250;DHT22;13201;51.148;13.738;2023-03-01T16:14:24;11.40;93.80
25250;DHT22;13201;51.148;13.738;2023-03-01T16:16:50;11.20;93.20
25250;DHT22;13201;51.148;13.738;2023-03-01T16:19:16;10.90;93.70
25250;DHT22;13201;51.148;13.738;2023-03-01T16:21:42;10.60;93.80
25250;DHT22;13201;51.148;13.738;2023-03-01T16:24:09;10.50;94.10
25250;DHT22;13201;51.148;13.738;2023-03-01T16:26:36;10.20;94.40
25250;DHT22;13201;51.148;13.738;2023-03-01T16:29:03;10.00;95.00
25250;DHT22;13201;51.148;13.738;2023-03-01T16:31:29;9.60;95.50
25250;DHT22;13201;51.148;13.738;2023-03-01T16:33:56;9.10;96.10
25250;DHT22;13201;51.148;13.738;2023-03-01T16:36:23;8.80;97.20
25250;DHT22;13201;51.148;13.738;2023-03-01T16:38:51;8.50;97.80
25250;DHT22;13201;51.148;13.738;2023-03-01T16:41:19;8.30;98.00
25250;DHT22;13201;51.148;13.738;2023-03-01T16:43:46;8.00;98.70
25250;DHT22;13201;51.148;13.738;2023-03-01T16:46:21;7.70;98.90
25250;DHT22;13201;51.148;13.738;2023-03-01T16:48:48;7.40;98.60
25250;DHT22;13201;51.148;13.738;2023-03-01T16:51:14;7.40;99.00
25250;DHT22;13201;51.148;13.738;2023-03-01T16:53:39;7.10;99.50
25250;DHT22;13201;51.148;13.738;2023-03-01T16:56:08;6.70;99.80
25250;DHT22;13201;51.148;13.738;2023-03-01T16:58:35;6.70;99.90
25250;DHT22;13201;51.148;13.738;2023-03-01T17:01:16;6.60;99.90
25250;DHT22;13201;51.148;13.738;2023-03-01T17:03:44;6.60;99.90
25250;DHT22;13201;51.148;13.738;2023-03-01T17:06:13;6.40;99.90
25250;DHT22;13201;51.148;13.738;2023-03-01T17:08:39;6.00;99.90
25250;DHT22;13201;51.148;13.738;2023-03-01T17:11:08;6.00;99.90
25250;DHT22;13201;51.148;13.738;2023-03-01T17:13:35;5.90;99.90
25250;DHT22;13201;51.148;13.738;2023-03-01T17:16:04;5.90;99.90
25250;DHT22;13201;51.148;13.738;2023-03-01T17:18:31;5.90;99.90
25250;DHT22;13201;51.148;13.738;2023-03-01T17:20:57;5.60;99.90
25250;DHT22;13201;51.148;13.738;2023-03-01T17:23:22;5.30;99.90
25250;DHT22;13201;51.148;13.738;2023-03-01T17:25:48;5.40;99.90
25250;DHT22;13201;51.148;13.738;2023-03-01T17:28:14;5.20;99.90
25250;DHT22;13201;51.148;13.738;2023-03-01T17:30:43;5.00;99.90
25250;DHT22;13201;51.148;13.738;2023-03-01T17:33:10;4.70;99.90
25250;DHT22;13201;51.148;13.738;2023-03-01T17:35:36;4.90;99.90
25250;DHT22;13201;51.148;13.738;2023-03-01T17:38:06;4.50;99.90
25250;DHT22;13201;51.148;13.738;2023-03-01T17:40:32;4.40;99.90
25250;DHT22;13201;51.148;13.738;2023-03-01T17:43:00;4.20;99.90
25250;DHT22;13201;51.148;13.738;2023-03-01T17:45:26;4.40;99.90
25250;DHT22;13201;51.148;13.738;2023-03-01T17:47:52;4.50;99.90
25250;DHT22;13201;51.148;13.738;2023-03-01T17:50:17;4.40;99.90
25250;DHT22;13201;51.148;13.738;2023-03-01T17:52:43;4.40;99.90
25250;DHT22;13201;51.148;13.738;2023-03-01T17:55:09;4.30;99.90
25250;DHT22;13201;51.148;13.738;2023-03-01T17:57:39;4.20;99.90
25250;DHT22;13201;51.148;13.738;2023-03-01T18:00:08;4.00;99.90
25250;DHT22;13201;51.148;13.738;2023-03-01T18:02:34;3.90;99.90
25250;DHT22;13201;51.148;13.738;2023-03-01T18:04:59;3.70;99.90
25250;DHT22;13201;51.148;13.738;2023-03-01T18:07:26;3.60;99.90
25250;DHT22;13201;51.148;13.738;2023-03-01T18:09:51;3.70;99.90
25250;DHT22;13201;51.148;13.738;2023-03-01T18:12:17;3.90;99.90
25250;DHT22;13201;51.148;13.738;2023-03-01T18:14:43;3.80;99.90